sensor_id;sensor_type;location;lat;lon;timestamp;temperature;humidity
51305;HTU21D;37392;50.964;6.952;2023-08-08T00:01:57;13.60;101.16
51305;HTU21D;37392;50.964;6.952;2023-08-08T00:04:23;13.53;101.52
51305;HTU21D;37392;50.964;6.952;2023-08-08T00:06:49;13.51;101.84
51305;HTU21D;37392;50.964;6.952;2023-08-08T00:09:14;13.54;101.95
51305;HTU21D;37392;50.964;6.952;2023-08-08T00:11:40;13.47;101.87
51305;HTU21D;37392;50.964;6.952;2023-08-08T00:14:05;13.51;102.18
51305;HTU21D;37392;50.964;6.952;2023-08-08T00:16:31;13.49;101.91
51305;HTU21D;37392;50.964;6.952;2023-08-08T00:18:57;13.46;101.95
51305;HTU21D;37392;50.964;6.952;2023-08-08T00:21:22;13.36;102.31
51305;HTU21D;37392;50.964;6.952;2023-08-08T00:23:48;13.23;102.89
51305;HTU21D;37392;50.964;6.952;2023-08-08T00:26:13;13.15;103.18
51305;HTU21D;37392;50.964;6.952;2023-08-08T00:28:39;13.04;103.09
51305;HTU21D;37392;50.964;6.952;2023-08-08T00:31:04;12.99;103.92
51305;HTU21D;37392;50.964;6.952;2023-08-08T00:33:30;12.96;103.73
51305;HTU21D;37392;50.964;6.952;2023-08-08T00:35:56;12.92;104.18
51305;HTU21D;37392;50.964;6.952;2023-08-08T00:38:22;12.84;104.37
51305;HTU21D;37392;50.964;6.952;2023-08-08T00:40:47;12.76;104.55
51305;HTU21D;37392;50.964;6.952;2023-08-08T00:43:13;12.69;105.09
51305;HTU21D;37392;50.964;6.952;2023-08-08T00:45:42;12.65;105.37
51305;HTU21D;37392;50.964;6.952;2023-08-08T00:48:08;12.70;105.64
51305;HTU21D;37392;50.964;6.952;2023-08-08T00:50:35;12.65;105.66
51305;HTU21D;37392;50.964;6.952;2023-08-08T00:53:03;12.65;105.53
51305;HTU21D;37392;50.964;6.952;2023-08-08T00:55:29;12.53;105.52
51305;HTU21D;37392;50.964;6.952;2023-08-08T00:57:55;12.64;105.74
51305;HTU21D;37392;50.964;6.952;2023-08-08T01:00:21;12.69;105.60
51305;HTU21D;37392;50.964;6.952;2023-08-08T01:02:47;12.71;105.52
51305;HTU21D;37392;50.964;6.952;2023-08-08T01:05:12;12.71;105.31
51305;HTU21D;37392;50.964;6.952;2023-08-08T01:07:59;12.71;105.58
51305;HTU21D;37392;50.964;6.952;2023-08-08T01:10:36;12.70;105.37
51305;HTU21D;37392;50.964;6.952;2023-08-08T01:13:07;12.73;105.54
51305;HTU21D;37392;50.964;6.952;2023-08-08T01:15:34;12.73;105.30
51305;HTU21D;37392;50.964;6.952;2023-08-08T01:18:04;12.78;104.99
51305;HTU21D;37392;50.964;6.952;2023-08-08T01:20:32;12.81;104.75
51305;HTU21D;37392;50.964;6.952;2023-08-08T01:23:12;12.93;104.13
51305;HTU21D;37392;50.964;6.952;2023-08-08T01:25:42;13.06;103.60
51305;HTU21D;37392;50.964;6.952;2023-08-08T01:28:09;13.14;103.08
51305;HTU21D;37392;50.964;6.952;2023-08-08T01:30:34;13.17;102.86
51305;HTU21D;37392;50.964;6.952;2023-08-08T01:33:00;13.26;102.26
51305;HTU21D;37392;50.964;6.952;2023-08-08T01:35:29;13.26;102.07
51305;HTU21D;37392;50.964;6.952;2023-08-08T01:38:04;13.32;101.98
51305;HTU21D;37392;50.964;6.952;2023-08-08T01:40:33;13.39;101.80
51305;HTU21D;37392;50.964;6.952;2023-08-08T01:43:01;13.41;101.44
51305;HTU21D;37392;50.964;6.952;2023-08-08T01:45:27;13.39;101.19
51305;HTU21D;37392;50.964;6.952;2023-08-08T01:47:52;13.40;101.60
51305;HTU21D;37392;50.964;6.952;2023-08-08T01:50:18;13.41;101.51
51305;HTU21D;37392;50.964;6.952;2023-08-08T01:52:44;13.39;101.53
51305;HTU21D;37392;50.964;6.952;2023-08-08T01:55:10;13.43;101.69
51305;HTU21D;37392;50.964;6.952;2023-08-08T01:57:36;13.46;101.64
51305;HTU21D;37392;50.964;6.952;2023-08-08T02:00:01;13.51;101.29
51305;HTU21D;37392;50.964;6.952;2023-08-08T02:02:29;13.51;101.32
51305;HTU21D;37392;50.964;6.952;2023-08-08T02:04:55;13.54;101.23
51305;HTU21D;37392;50.964;6.952;2023-08-08T02:07:20;13.50;101.15
51305;HTU21D;37392;50.964;6.952;2023-08-08T02:09:46;13.51;101.44
51305;HTU21D;37392;50.964;6.952;2023-08-08T02:12:11;13.41;101.34
51305;HTU21D;37392;50.964;6.952;2023-08-08T02:14:37;13.33;101.92
51305;HTU21D;37392;50.964;6.952;2023-08-08T02:17:02;13.19;102.48
51305;HTU21D;37392;50.964;6.952;2023-08-08T02:19:28;13.06;103.25
51305;HTU21D;37392;50.964;6.952;2023-08-08T02:21:54;12.95;103.86
51305;HTU21D;37392;50.964;6.952;2023-08-08T02:24:20;12.86;104.11
51305;HTU21D;37392;50.964;6.952;2023-08-08T02:26:45;12.76;104.73
51305;HTU21D;37392;50.964;6.952;2023-08-08T02:29:11;12.69;105.39
51305;HTU21D;37392;50.964;6.952;2023-08-08T02:31:36;12.56;105.44
51305;HTU21D;37392;50.964;6.952;2023-08-08T02:34:02;12.50;106.11
51305;HTU21D;37392;50.964;6.952;2023-08-08T02:36:27;12.56;106.20
51305;HTU21D;37392;50.964;6.952;2023-08-08T02:38:53;12.57;106.06
51305;HTU21D;37392;50.964;6.952;2023-08-08T02:41:19;12.59;105.98
51305;HTU21D;37392;50.964;6.952;2023-08-08T02:43:45;12.57;105.74
51305;HTU21D;37392;50.964;6.952;2023-08-08T02:46:11;12.51;105.94
51305;HTU21D;37392;50.964;6.952;2023-08-08T02:48:37;12.45;105.96
51305;HTU21D;37392;50.964;6.952;2023-08-08T02:51:02;12.44;106.14
51305;HTU21D;37392;50.964;6.952;2023-08-08T02:53:28;12.33;106.36
51305;HTU21D;37392;50.964;6.952;2023-08-08T02:55:53;12.31;106.57
51305;HTU21D;37392;50.964;6.952;2023-08-08T02:58:19;12.26;106.82
51305;HTU21D;37392;50.964;6.952;2023-08-08T03:00:44;12.28;107.15
51305;HTU21D;37392;50.964;6.952;2023-08-08T03:03:10;12.22;106.82
51305;HTU21D;37392;50.964;6.952;2023-08-08T03:05:35;12.15;106.81
51305;HTU21D;37392;50.964;6.952;2023-08-08T03:08:01;12.10;106.91
51305;HTU21D;37392;50.964;6.952;2023-08-08T03:10:27;12.06;107.44
51305;HTU21D;37392;50.964;6.952;2023-08-08T03:12:52;12.01;107.72
51305;HTU21D;37392;50.964;6.952;2023-08-08T03:15:18;11.98;108.02
51305;HTU21D;37392;50.964;6.952;2023-08-08T03:17:43;11.90;107.89
51305;HTU21D;37392;50.964;6.952;2023-08-08T03:20:09;11.85;108.23
51305;HTU21D;37392;50.964;6.952;2023-08-08T03:22:36;11.85;108.78
51305;HTU21D;37392;50.964;6.952;2023-08-08T03:25:02;11.85;108.78
51305;HTU21D;37392;50.964;6.952;2023-08-08T03:27:29;11.89;108.92
51305;HTU21D;37392;50.964;6.952;2023-08-08T03:29:55;11.90;108.98
51305;HTU21D;37392;50.964;6.952;2023-08-08T03:32:22;11.88;109.18
51305;HTU21D;37392;50.964;6.952;2023-08-08T03:34:48;11.84;109.23
51305;HTU21D;37392;50.964;6.952;2023-08-08T03:37:13;11.79;109.13
51305;HTU21D;37392;50.964;6.952;2023-08-08T03:39:39;11.77;109.49
51305;HTU21D;37392;50.964;6.952;2023-08-08T03:42:05;11.72;109.46
51305;HTU21D;37392;50.964;6.952;2023-08-08T03:44:30;11.71;109.72
51305;HTU21D;37392;50.964;6.952;2023-08-08T03:46:56;11.76;109.52
51305;HTU21D;37392;50.964;6.952;2023-08-08T03:49:21;11.88;109.60
51305;HTU21D;37392;50.964;6.952;2023-08-08T03:51:47;11.93;109.59
51305;HTU21D;37392;50.964;6.952;2023-08-08T03:54:13;12.00;109.52
51305;HTU21D;37392;50.964;6.952;2023-08-08T03:56:40;12.12;109.49
51305;HTU21D;37392;50.964;6.952;2023-08-08T03:59:06;12.14;108.84
51305;HTU21D;37392;50.964;6.952;2023-08-08T04:01:32;12.17;108.80
51305;HTU21D;37392;50.964;6.952;2023-08-08T04:03:57;12.16;108.78
51305;HTU21D;37392;50.964;6.952;2023-08-08T04:06:23;12.15;108.81
51305;HTU21D;37392;50.964;6.952;2023-08-08T04:08:49;12.16;108.94
51305;HTU21D;37392;50.964;6.952;2023-08-08T04:11:15;12.20;108.99
51305;HTU21D;37392;50.964;6.952;2023-08-08T04:13:41;12.17;109.16
51305;HTU21D;37392;50.964;6.952;2023-08-08T04:16:07;12.20;109.06
51305;HTU21D;37392;50.964;6.952;2023-08-08T04:18:32;12.20;109.32
51305;HTU21D;37392;50.964;6.952;2023-08-08T04:20:58;12.33;109.17
51305;HTU21D;37392;50.964;6.952;2023-08-08T04:23:23;12.40;108.83
51305;HTU21D;37392;50.964;6.952;2023-08-08T04:25:51;12.50;108.30
51305;HTU21D;37392;50.964;6.952;2023-08-08T04:28:18;12.59;108.34
51305;HTU21D;37392;50.964;6.952;2023-08-08T04:30:44;12.55;107.94
51305;HTU21D;37392;50.964;6.952;2023-08-08T04:33:09;12.52;108.23
51305;HTU21D;37392;50.964;6.952;2023-08-08T04:35:35;12.44;108.49
51305;HTU21D;37392;50.964;6.952;2023-08-08T04:38:01;12.46;108.93
51305;HTU21D;37392;50.964;6.952;2023-08-08T04:40:27;12.44;109.01
51305;HTU21D;37392;50.964;6.952;2023-08-08T04:42:52;12.40;108.89
51305;HTU21D;37392;50.964;6.952;2023-08-08T04:45:18;12.45;109.52
51305;HTU21D;37392;50.964;6.952;2023-08-08T04:47:44;12.50;109.55
51305;HTU21D;37392;50.964;6.952;2023-08-08T04:50:10;12.57;109.30
51305;HTU21D;37392;50.964;6.952;2023-08-08T04:52:38;12.64;109.33
51305;HTU21D;37392;50.964;6.952;2023-08-08T04:55:04;12.80;109.07
51305;HTU21D;37392;50.964;6.952;2023-08-08T04:57:30;12.91;108.57
51305;HTU21D;37392;50.964;6.952;2023-08-08T04:59:56;13.01;108.33
51305;HTU21D;37392;50.964;6.952;2023-08-08T05:02:22;13.11;108.07
51305;HTU21D;37392;50.964;6.952;2023-08-08T05:04:48;13.22;107.77
51305;HTU21D;37392;50.964;6.952;2023-08-08T05:07:15;13.37;107.53
51305;HTU21D;37392;50.964;6.952;2023-08-08T05:09:41;13.58;106.96
51305;HTU21D;37392;50.964;6.952;2023-08-08T05:12:06;13.70;106.21
51305;HTU21D;37392;50.964;6.952;2023-08-08T05:14:32;13.82;105.64
51305;HTU21D;37392;50.964;6.952;2023-08-08T05:16:58;13.95;105.18
51305;HTU21D;37392;50.964;6.952;2023-08-08T05:19:23;14.06;104.94
51305;HTU21D;37392;50.964;6.952;2023-08-08T05:21:50;14.18;104.54
51305;HTU21D;37392;50.964;6.952;2023-08-08T05:24:17;14.32;104.04
51305;HTU21D;37392;50.964;6.952;2023-08-08T05:26:42;14.54;103.57
51305;HTU21D;37392;50.964;6.952;2023-08-08T05:29:08;14.67;102.51
51305;HTU21D;37392;50.964;6.952;2023-08-08T05:31:33;14.82;102.09
51305;HTU21D;37392;50.964;6.952;2023-08-08T05:33:59;15.00;101.08
51305;HTU21D;37392;50.964;6.952;2023-08-08T05:36:24;15.15;100.61
51305;HTU21D;37392;50.964;6.952;2023-08-08T05:38:50;15.31;99.67
51305;HTU21D;37392;50.964;6.952;2023-08-08T05:41:15;15.47;98.92
51305;HTU21D;37392;50.964;6.952;2023-08-08T05:43:41;15.53;98.38
51305;HTU21D;37392;50.964;6.952;2023-08-08T05:46:07;15.49;98.24
51305;HTU21D;37392;50.964;6.952;2023-08-08T05:48:33;15.53;98.36
51305;HTU21D;37392;50.964;6.952;2023-08-08T05:50:59;15.56;98.29
51305;HTU21D;37392;50.964;6.952;2023-08-08T05:53:25;15.55;98.26
51305;HTU21D;37392;50.964;6.952;2023-08-08T05:55:50;15.59;98.45
51305;HTU21D;37392;50.964;6.952;2023-08-08T05:58:16;16.08;98.60
51305;HTU21D;37392;50.964;6.952;2023-08-08T06:00:42;17.34;94.04
51305;HTU21D;37392;50.964;6.952;2023-08-08T06:03:08;18.14;89.35
51305;HTU21D;37392;50.964;6.952;2023-08-08T06:05:33;18.99;86.33
51305;HTU21D;37392;50.964;6.952;2023-08-08T06:07:59;20.12;82.44
51305;HTU21D;37392;50.964;6.952;2023-08-08T06:10:25;20.99;78.53
51305;HTU21D;37392;50.964;6.952;2023-08-08T06:12:50;21.83;75.64
51305;HTU21D;37392;50.964;6.952;2023-08-08T06:15:16;22.32;72.34
51305;HTU21D;37392;50.964;6.952;2023-08-08T06:17:42;22.78;70.98
51305;HTU21D;37392;50.964;6.952;2023-08-08T06:20:07;23.34;69.58
51305;HTU21D;37392;50.964;6.952;2023-08-08T06:22:34;23.81;67.47
51305;HTU21D;37392;50.964;6.952;2023-08-08T06:25:00;24.38;65.60
51305;HTU21D;37392;50.964;6.952;2023-08-08T06:27:25;24.89;64.06
51305;HTU21D;37392;50.964;6.952;2023-08-08T06:29:51;25.46;62.65
51305;HTU21D;37392;50.964;6.952;2023-08-08T06:32:17;25.74;61.07
51305;HTU21D;37392;50.964;6.952;2023-08-08T06:34:42;25.95;60.26
51305;HTU21D;37392;50.964;6.952;2023-08-08T06:37:08;26.26;59.14
51305;HTU21D;37392;50.964;6.952;2023-08-08T06:39:45;26.38;58.67
51305;HTU21D;37392;50.964;6.952;2023-08-08T06:42:11;26.06;58.90
51305;HTU21D;37392;50.964;6.952;2023-08-08T06:44:42;26.19;58.78
51305;HTU21D;37392;50.964;6.952;2023-08-08T06:47:08;26.52;57.93
51305;HTU21D;37392;50.964;6.952;2023-08-08T06:49:34;26.57;57.42
51305;HTU21D;37392;50.964;6.952;2023-08-08T06:52:00;26.89;56.63
51305;HTU21D;37392;50.964;6.952;2023-08-08T06:54:25;26.48;57.10
51305;HTU21D;37392;50.964;6.952;2023-08-08T06:56:53;25.75;58.77
51305;HTU21D;37392;50.964;6.952;2023-08-08T06:59:19;24.99;60.48
51305;HTU21D;37392;50.964;6.952;2023-08-08T07:01:45;24.29;62.22
51305;HTU21D;37392;50.964;6.952;2023-08-08T07:04:11;24.00;63.41
51305;HTU21D;37392;50.964;6.952;2023-08-08T07:06:36;24.26;63.14
51305;HTU21D;37392;50.964;6.952;2023-08-08T07:09:02;24.34;63.03
51305;HTU21D;37392;50.964;6.952;2023-08-08T07:11:27;24.77;61.80
51305;HTU21D;37392;50.964;6.952;2023-08-08T07:13:53;25.40;60.80
51305;HTU21D;37392;50.964;6.952;2023-08-08T07:16:19;26.25;58.30
51305;HTU21D;37392;50.964;6.952;2023-08-08T07:18:44;26.41;57.48
51305;HTU21D;37392;50.964;6.952;2023-08-08T07:21:10;26.54;57.28
51305;HTU21D;37392;50.964;6.952;2023-08-08T07:23:35;26.23;57.58
51305;HTU21D;37392;50.964;6.952;2023-08-08T07:26:01;26.34;57.96
51305;HTU21D;37392;50.964;6.952;2023-08-08T07:28:26;26.96;56.55
51305;HTU21D;37392;50.964;6.952;2023-08-08T07:30:52;26.42;56.81
51305;HTU21D;37392;50.964;6.952;2023-08-08T07:33:17;26.22;57.48
51305;HTU21D;37392;50.964;6.952;2023-08-08T07:35:43;25.73;58.64
51305;HTU21D;37392;50.964;6.952;2023-08-08T07:38:08;25.28;59.90
51305;HTU21D;37392;50.964;6.952;2023-08-08T07:40:34;24.76;61.13
51305;HTU21D;37392;50.964;6.952;2023-08-08T07:43:00;24.35;62.24
51305;HTU21D;37392;50.964;6.952;2023-08-08T07:45:25;23.91;63.60
51305;HTU21D;37392;50.964;6.952;2023-08-08T07:47:51;23.88;64.04
51305;HTU21D;37392;50.964;6.952;2023-08-08T07:50:16;23.79;64.27
51305;HTU21D;37392;50.964;6.952;2023-08-08T07:52:42;23.91;64.25
51305;HTU21D;37392;50.964;6.952;2023-08-08T07:55:08;24.09;63.57
51305;HTU21D;37392;50.964;6.952;2023-08-08T07:57:34;24.05;63.89
51305;HTU21D;37392;50.964;6.952;2023-08-08T08:00:00;23.86;64.36
51305;HTU21D;37392;50.964;6.952;2023-08-08T08:02:33;23.68;64.72
51305;HTU21D;37392;50.964;6.952;2023-08-08T08:04:58;23.61;65.15
51305;HTU21D;37392;50.964;6.952;2023-08-08T08:07:24;23.49;65.50
51305;HTU21D;37392;50.964;6.952;2023-08-08T08:09:50;23.46;65.65
51305;HTU21D;37392;50.964;6.952;2023-08-08T08:12:15;23.55;65.33
51305;HTU21D;37392;50.964;6.952;2023-08-08T08:14:41;23.49;65.50
51305;HTU21D;37392;50.964;6.952;2023-08-08T08:17:06;24.04;64.57
51305;HTU21D;37392;50.964;6.952;2023-08-08T08:19:32;24.14;63.66
51305;HTU21D;37392;50.964;6.952;2023-08-08T08:21:57;24.26;63.83
51305;HTU21D;37392;50.964;6.952;2023-08-08T08:24:23;24.29;63.01
51305;HTU21D;37392;50.964;6.952;2023-08-08T08:26:49;24.11;63.44
51305;HTU21D;37392;50.964;6.952;2023-08-08T08:29:14;23.66;64.47
51305;HTU21D;37392;50.964;6.952;2023-08-08T08:31:40;22.84;66.52
51305;HTU21D;37392;50.964;6.952;2023-08-08T08:34:05;22.38;68.07
51305;HTU21D;37392;50.964;6.952;2023-08-08T08:36:31;21.99;69.27
51305;HTU21D;37392;50.964;6.952;2023-08-08T08:38:56;21.89;70.26
51305;HTU21D;37392;50.964;6.952;2023-08-08T08:41:28;21.75;70.85
51305;HTU21D;37392;50.964;6.952;2023-08-08T08:43:54;21.68;73.66
51305;HTU21D;37392;50.964;6.952;2023-08-08T08:46:21;21.52;72.22
51305;HTU21D;37392;50.964;6.952;2023-08-08T08:48:49;21.44;71.87
51305;HTU21D;37392;50.964;6.952;2023-08-08T08:51:15;21.45;71.75
51305;HTU21D;37392;50.964;6.952;2023-08-08T08:53:42;21.18;72.10
51305;HTU21D;37392;50.964;6.952;2023-08-08T08:56:15;20.99;72.27
51305;HTU21D;37392;50.964;6.952;2023-08-08T08:58:42;20.86;72.84
51305;HTU21D;37392;50.964;6.952;2023-08-08T09:01:11;21.07;72.58
51305;HTU21D;37392;50.964;6.952;2023-08-08T09:03:37;21.16;72.00
51305;HTU21D;37392;50.964;6.952;2023-08-08T09:06:04;21.19;71.97
51305;HTU21D;37392;50.964;6.952;2023-08-08T09:08:30;21.23;71.60
51305;HTU21D;37392;50.964;6.952;2023-08-08T09:10:56;21.20;71.47
51305;HTU21D;37392;50.964;6.952;2023-08-08T09:13:23;21.17;71.48
51305;HTU21D;37392;50.964;6.952;2023-08-08T09:15:52;20.95;71.84
51305;HTU21D;37392;50.964;6.952;2023-08-08T09:18:18;20.90;71.71
51305;HTU21D;37392;50.964;6.952;2023-08-08T09:20:47;20.87;71.71
51305;HTU21D;37392;50.964;6.952;2023-08-08T09:23:14;20.85;72.01
51305;HTU21D;37392;50.964;6.952;2023-08-08T09:25:39;20.96;71.74
51305;HTU21D;37392;50.964;6.952;2023-08-08T09:28:05;21.06;71.47
51305;HTU21D;37392;50.964;6.952;2023-08-08T09:30:31;21.18;71.00
51305;HTU21D;37392;50.964;6.952;2023-08-08T09:33:03;21.23;70.60
51305;HTU21D;37392;50.964;6.952;2023-08-08T09:35:29;21.22;70.25
51305;HTU21D;37392;50.964;6.952;2023-08-08T09:37:55;21.24;70.23
51305;HTU21D;37392;50.964;6.952;2023-08-08T09:40:22;21.24;70.25
51305;HTU21D;37392;50.964;6.952;2023-08-08T09:42:51;21.30;70.16
51305;HTU21D;37392;50.964;6.952;2023-08-08T09:45:18;21.45;69.75
51305;HTU21D;37392;50.964;6.952;2023-08-08T09:47:44;21.63;69.53
51305;HTU21D;37392;50.964;6.952;2023-08-08T09:50:11;21.62;69.71
51305;HTU21D;37392;50.964;6.952;2023-08-08T09:52:37;21.70;69.64
51305;HTU21D;37392;50.964;6.952;2023-08-08T09:55:05;21.93;68.20
51305;HTU21D;37392;50.964;6.952;2023-08-08T09:57:32;22.13;67.67
51305;HTU21D;37392;50.964;6.952;2023-08-08T09:59:58;22.36;66.96
51305;HTU21D;37392;50.964;6.952;2023-08-08T10:02:24;22.62;66.26
51305;HTU21D;37392;50.964;6.952;2023-08-08T10:04:50;22.78;65.53
51305;HTU21D;37392;50.964;6.952;2023-08-08T10:07:18;22.72;65.11
51305;HTU21D;37392;50.964;6.952;2023-08-08T10:09:43;22.43;66.01
51305;HTU21D;37392;50.964;6.952;2023-08-08T10:12:11;22.27;66.18
51305;HTU21D;37392;50.964;6.952;2023-08-08T10:14:38;22.22;66.75
51305;HTU21D;37392;50.964;6.952;2023-08-08T10:17:07;22.35;66.26
51305;HTU21D;37392;50.964;6.952;2023-08-08T10:19:33;22.73;65.81
51305;HTU21D;37392;50.964;6.952;2023-08-08T10:22:04;23.13;64.65
51305;HTU21D;37392;50.964;6.952;2023-08-08T10:24:34;23.62;63.37
51305;HTU21D;37392;50.964;6.952;2023-08-08T10:27:03;24.28;61.72
51305;HTU21D;37392;50.964;6.952;2023-08-08T10:29:31;24.79;60.14
51305;HTU21D;37392;50.964;6.952;2023-08-08T10:32:03;25.06;58.48
51305;HTU21D;37392;50.964;6.952;2023-08-08T10:34:41;24.74;58.64
51305;HTU21D;37392;50.964;6.952;2023-08-08T10:37:15;24.93;58.33
51305;HTU21D;37392;50.964;6.952;2023-08-08T10:39:59;25.36;56.93
51305;HTU21D;37392;50.964;6.952;2023-08-08T10:42:28;25.52;55.88
51305;HTU21D;37392;50.964;6.952;2023-08-08T10:44:55;25.38;56.32
51305;HTU21D;37392;50.964;6.952;2023-08-08T10:47:31;24.91;57.07
51305;HTU21D;37392;50.964;6.952;2023-08-08T10:50:13;24.74;57.96
51305;HTU21D;37392;50.964;6.952;2023-08-08T10:52:54;24.45;58.58
51305;HTU21D;37392;50.964;6.952;2023-08-08T10:58:07;23.57;60.04
51305;HTU21D;37392;50.964;6.952;2023-08-08T11:00:35;23.11;61.27
51305;HTU21D;37392;50.964;6.952;2023-08-08T11:03:02;22.72;62.20
51305;HTU21D;37392;50.964;6.952;2023-08-08T11:05:33;22.65;62.39
51305;HTU21D;37392;50.964;6.952;2023-08-08T11:08:00;22.61;62.76
51305;HTU21D;37392;50.964;6.952;2023-08-08T11:10:28;22.68;62.62
51305;HTU21D;37392;50.964;6.952;2023-08-08T11:13:01;22.70;62.72
51305;HTU21D;37392;50.964;6.952;2023-08-08T11:15:28;22.77;62.69
51305;HTU21D;37392;50.964;6.952;2023-08-08T11:17:56;22.91;62.24
51305;HTU21D;37392;50.964;6.952;2023-08-08T11:20:23;23.00;61.82
51305;HTU21D;37392;50.964;6.952;2023-08-08T11:22:56;22.85;62.47
51305;HTU21D;37392;50.964;6.952;2023-08-08T11:25:22;22.79;62.88
51305;HTU21D;37392;50.964;6.952;2023-08-08T11:27:52;22.79;62.66
51305;HTU21D;37392;50.964;6.952;2023-08-08T11:30:19;22.77;62.88
51305;HTU21D;37392;50.964;6.952;2023-08-08T11:32:46;22.71;62.72
51305;HTU21D;37392;50.964;6.952;2023-08-08T11:35:22;22.82;62.46
51305;HTU21D;37392;50.964;6.952;2023-08-08T11:37:49;23.00;61.54
51305;HTU21D;37392;50.964;6.952;2023-08-08T11:40:17;23.23;60.70
51305;HTU21D;37392;50.964;6.952;2023-08-08T11:42:43;23.37;60.44
51305;HTU21D;37392;50.964;6.952;2023-08-08T11:45:11;23.32;60.06
51305;HTU21D;37392;50.964;6.952;2023-08-08T11:47:38;23.24;60.22
51305;HTU21D;37392;50.964;6.952;2023-08-08T11:50:06;23.18;60.73
51305;HTU21D;37392;50.964;6.952;2023-08-08T11:52:33;23.21;60.51
51305;HTU21D;37392;50.964;6.952;2023-08-08T11:55:00;23.09;60.37
51305;HTU21D;37392;50.964;6.952;2023-08-08T11:57:27;22.98;60.35
51305;HTU21D;37392;50.964;6.952;2023-08-08T11:59:53;22.75;60.81
51305;HTU21D;37392;50.964;6.952;2023-08-08T12:02:19;22.48;61.55
51305;HTU21D;37392;50.964;6.952;2023-08-08T12:04:45;22.23;62.59
51305;HTU21D;37392;50.964;6.952;2023-08-08T12:07:11;22.17;63.13
51305;HTU21D;37392;50.964;6.952;2023-08-08T12:09:37;22.24;63.12
51305;HTU21D;37392;50.964;6.952;2023-08-08T12:12:03;22.32;62.79
51305;HTU21D;37392;50.964;6.952;2023-08-08T12:14:29;22.32;62.24
51305;HTU21D;37392;50.964;6.952;2023-08-08T12:16:55;22.56;61.82
51305;HTU21D;37392;50.964;6.952;2023-08-08T12:19:24;22.61;61.06
51305;HTU21D;37392;50.964;6.952;2023-08-08T12:21:51;22.58;60.97
51305;HTU21D;37392;50.964;6.952;2023-08-08T12:24:20;22.67;60.82
51305;HTU21D;37392;50.964;6.952;2023-08-08T12:26:46;22.76;60.70
51305;HTU21D;37392;50.964;6.952;2023-08-08T12:29:12;22.98;60.17
51305;HTU21D;37392;50.964;6.952;2023-08-08T12:31:38;22.68;60.17
51305;HTU21D;37392;50.964;6.952;2023-08-08T12:34:04;22.70;60.32
51305;HTU21D;37392;50.964;6.952;2023-08-08T12:36:30;22.82;60.36
51305;HTU21D;37392;50.964;6.952;2023-08-08T12:38:56;22.83;60.80
51305;HTU21D;37392;50.964;6.952;2023-08-08T12:41:22;22.71;60.66
51305;HTU21D;37392;50.964;6.952;2023-08-08T12:43:50;22.54;61.12
51305;HTU21D;37392;50.964;6.952;2023-08-08T12:46:16;22.23;62.07
51305;HTU21D;37392;50.964;6.952;2023-08-08T12:48:42;22.05;62.38
51305;HTU21D;37392;50.964;6.952;2023-08-08T12:51:09;21.84;62.95
51305;HTU21D;37392;50.964;6.952;2023-08-08T12:53:34;21.68;64.82
51305;HTU21D;37392;50.964;6.952;2023-08-08T12:56:01;21.06;70.81
51305;HTU21D;37392;50.964;6.952;2023-08-08T12:58:26;20.55;74.57
51305;HTU21D;37392;50.964;6.952;2023-08-08T13:00:52;20.10;77.13
51305;HTU21D;37392;50.964;6.952;2023-08-08T13:03:18;19.82;78.97
51305;HTU21D;37392;50.964;6.952;2023-08-08T13:05:43;19.63;80.14
51305;HTU21D;37392;50.964;6.952;2023-08-08T13:08:09;19.44;80.91
51305;HTU21D;37392;50.964;6.952;2023-08-08T13:10:36;19.36;81.65
51305;HTU21D;37392;50.964;6.952;2023-08-08T13:13:01;19.36;81.80
51305;HTU21D;37392;50.964;6.952;2023-08-08T13:15:27;19.48;81.41
51305;HTU21D;37392;50.964;6.952;2023-08-08T13:17:53;19.69;80.88
51305;HTU21D;37392;50.964;6.952;2023-08-08T13:20:18;19.95;79.88
51305;HTU21D;37392;50.964;6.952;2023-08-08T13:22:44;20.14;78.63
51305;HTU21D;37392;50.964;6.952;2023-08-08T13:25:10;20.48;77.47
51305;HTU21D;37392;50.964;6.952;2023-08-08T13:27:36;20.93;76.55
51305;HTU21D;37392;50.964;6.952;2023-08-08T13:30:03;21.46;74.73
51305;HTU21D;37392;50.964;6.952;2023-08-08T13:32:30;21.63;73.69
51305;HTU21D;37392;50.964;6.952;2023-08-08T13:34:56;21.61;73.21
51305;HTU21D;37392;50.964;6.952;2023-08-08T13:37:21;21.73;72.65
51305;HTU21D;37392;50.964;6.952;2023-08-08T13:39:47;21.98;71.72
51305;HTU21D;37392;50.964;6.952;2023-08-08T13:42:13;22.22;70.04
51305;HTU21D;37392;50.964;6.952;2023-08-08T13:44:38;22.39;68.21
51305;HTU21D;37392;50.964;6.952;2023-08-08T13:47:04;22.60;66.52
51305;HTU21D;37392;50.964;6.952;2023-08-08T13:49:30;22.73;65.06
51305;HTU21D;37392;50.964;6.952;2023-08-08T13:51:56;22.85;63.24
51305;HTU21D;37392;50.964;6.952;2023-08-08T13:54:21;22.72;63.31
51305;HTU21D;37392;50.964;6.952;2023-08-08T13:56:47;22.69;63.29
51305;HTU21D;37392;50.964;6.952;2023-08-08T13:59:12;22.64;62.93
51305;HTU21D;37392;50.964;6.952;2023-08-08T14:01:39;22.58;63.40
51305;HTU21D;37392;50.964;6.952;2023-08-08T14:04:04;22.43;68.56
51305;HTU21D;37392;50.964;6.952;2023-08-08T14:06:30;22.26;67.13
51305;HTU21D;37392;50.964;6.952;2023-08-08T14:08:56;22.27;66.03
51305;HTU21D;37392;50.964;6.952;2023-08-08T14:11:22;22.49;65.27
51305;HTU21D;37392;50.964;6.952;2023-08-08T14:13:48;22.55;64.84
51305;HTU21D;37392;50.964;6.952;2023-08-08T14:16:14;22.72;64.42
51305;HTU21D;37392;50.964;6.952;2023-08-08T14:18:40;22.80;64.38
51305;HTU21D;37392;50.964;6.952;2023-08-08T14:21:05;22.91;64.38
51305;HTU21D;37392;50.964;6.952;2023-08-08T14:23:31;23.10;63.79
51305;HTU21D;37392;50.964;6.952;2023-08-08T14:25:57;23.39;63.21
51305;HTU21D;37392;50.964;6.952;2023-08-08T14:28:23;23.38;62.67
51305;HTU21D;37392;50.964;6.952;2023-08-08T14:30:49;23.37;62.77
51305;HTU21D;37392;50.964;6.952;2023-08-08T14:33:15;23.26;62.99
51305;HTU21D;37392;50.964;6.952;2023-08-08T14:35:41;23.09;62.89
51305;HTU21D;37392;50.964;6.952;2023-08-08T14:38:07;22.83;63.29
51305;HTU21D;37392;50.964;6.952;2023-08-08T14:40:33;22.92;62.68
51305;HTU21D;37392;50.964;6.952;2023-08-08T14:43:00;22.84;62.87
51305;HTU21D;37392;50.964;6.952;2023-08-08T14:45:26;22.98;62.26
51305;HTU21D;37392;50.964;6.952;2023-08-08T14:47:52;23.11;61.79
51305;HTU21D;37392;50.964;6.952;2023-08-08T14:50:18;23.32;61.22
51305;HTU21D;37392;50.964;6.952;2023-08-08T14:52:44;23.35;60.73
51305;HTU21D;37392;50.964;6.952;2023-08-08T14:55:10;23.14;60.43
51305;HTU21D;37392;50.964;6.952;2023-08-08T14:57:35;22.95;61.14
51305;HTU21D;37392;50.964;6.952;2023-08-08T15:00:01;22.76;61.90
51305;HTU21D;37392;50.964;6.952;2023-08-08T15:02:27;22.88;61.73
51305;HTU21D;37392;50.964;6.952;2023-08-08T15:04:52;23.08;61.50
51305;HTU21D;37392;50.964;6.952;2023-08-08T15:07:18;23.24;61.53
51305;HTU21D;37392;50.964;6.952;2023-08-08T15:09:45;23.34;61.35